sensor_id;sensor_type;location;lat;lon;timestamp;temperature;humidity
78463;SHT31;67756;51.982;5.648;2023-02-15T00:01:36;8.3;58.0
78463;SHT31;67756;51.982;5.648;2023-02-15T00:04:08;8.3;57.8
78463;SHT31;67756;51.982;5.648;2023-02-15T00:06:38;8.3;57.8
78463;SHT31;67756;51.982;5.648;2023-02-15T00:09:09;8.3;57.7
78463;SHT31;67756;51.982;5.648;2023-02-15T00:11:39;8.3;57.7
78463;SHT31;67756;51.982;5.648;2023-02-15T00:14:13;8.2;57.7
78463;SHT31;67756;51.982;5.648;2023-02-15T00:16:44;8.2;57.5
78463;SHT31;67756;51.982;5.648;2023-02-15T00:19:18;8.2;57.3
78463;SHT31;67756;51.982;5.648;2023-02-15T00:21:48;8.1;57.5
78463;SHT31;67756;51.982;5.648;2023-02-15T00:24:18;8.1;57.5
78463;SHT31;67756;51.982;5.648;2023-02-15T00:26:48;8.1;57.7
78463;SHT31;67756;51.982;5.648;2023-02-15T00:29:19;8.0;57.4
78463;SHT31;67756;51.982;5.648;2023-02-15T00:31:50;8.0;57.5
78463;SHT31;67756;51.982;5.648;2023-02-15T00:34:24;8.0;57.6
78463;SHT31;67756;51.982;5.648;2023-02-15T00:36:54;7.9;57.3
78463;SHT31;67756;51.982;5.648;2023-02-15T00:39:23;7.9;57.2
78463;SHT31;67756;51.982;5.648;2023-02-15T00:41:54;7.9;57.4
78463;SHT31;67756;51.982;5.648;2023-02-15T00:44:24;7.8;57.4
78463;SHT31;67756;51.982;5.648;2023-02-15T00:46:53;7.8;58.3
78463;SHT31;67756;51.982;5.648;2023-02-15T00:49:23;7.8;57.4
78463;SHT31;67756;51.982;5.648;2023-02-15T00:51:52;7.8;57.3
78463;SHT31;67756;51.982;5.648;2023-02-15T00:54:22;7.7;57.3
78463;SHT31;67756;51.982;5.648;2023-02-15T00:56:51;7.7;57.3
78463;SHT31;67756;51.982;5.648;2023-02-15T00:59:21;7.7;57.6
78463;SHT31;67756;51.982;5.648;2023-02-15T01:01:50;7.7;57.4
78463;SHT31;67756;51.982;5.648;2023-02-15T01:04:20;7.7;57.9
78463;SHT31;67756;51.982;5.648;2023-02-15T01:06:49;7.6;57.9
78463;SHT31;67756;51.982;5.648;2023-02-15T01:09:19;7.6;57.9
78463;SHT31;67756;51.982;5.648;2023-02-15T01:11:48;7.6;57.9
78463;SHT31;67756;51.982;5.648;2023-02-15T01:14:19;7.6;57.7
78463;SHT31;67756;51.982;5.648;2023-02-15T01:16:51;7.5;58.2
78463;SHT31;67756;51.982;5.648;2023-02-15T01:19:20;7.5;58.4
78463;SHT31;67756;51.982;5.648;2023-02-15T01:21:50;7.5;58.3
78463;SHT31;67756;51.982;5.648;2023-02-15T01:24:19;7.5;58.4
78463;SHT31;67756;51.982;5.648;2023-02-15T01:26:48;7.5;58.0
78463;SHT31;67756;51.982;5.648;2023-02-15T01:29:18;7.5;58.3
78463;SHT31;67756;51.982;5.648;2023-02-15T01:31:47;7.5;58.2
78463;SHT31;67756;51.982;5.648;2023-02-15T01:34:17;7.5;57.5
78463;SHT31;67756;51.982;5.648;2023-02-15T01:36:46;7.4;57.8
78463;SHT31;67756;51.982;5.648;2023-02-15T01:39:16;7.4;58.0
78463;SHT31;67756;51.982;5.648;2023-02-15T01:41:45;7.4;58.1
78463;SHT31;67756;51.982;5.648;2023-02-15T01:44:47;7.4;58.2
78463;SHT31;67756;51.982;5.648;2023-02-15T01:47:22;7.4;58.4
78463;SHT31;67756;51.982;5.648;2023-02-15T01:50:01;7.3;58.5
78463;SHT31;67756;51.982;5.648;2023-02-15T01:52:31;7.3;58.7
78463;SHT31;67756;51.982;5.648;2023-02-15T01:55:01;7.3;58.6
78463;SHT31;67756;51.982;5.648;2023-02-15T01:57:31;7.3;58.7
78463;SHT31;67756;51.982;5.648;2023-02-15T02:00:04;7.2;58.8
78463;SHT31;67756;51.982;5.648;2023-02-15T02:02:35;7.2;59.1
78463;SHT31;67756;51.982;5.648;2023-02-15T02:05:06;7.2;59.0
78463;SHT31;67756;51.982;5.648;2023-02-15T02:07:41;7.2;59.4
78463;SHT31;67756;51.982;5.648;2023-02-15T02:10:14;7.2;59.2
78463;SHT31;67756;51.982;5.648;2023-02-15T02:12:46;7.1;59.3
78463;SHT31;67756;51.982;5.648;2023-02-15T02:15:16;7.1;59.0
78463;SHT31;67756;51.982;5.648;2023-02-15T02:17:59;7.1;59.5
78463;SHT31;67756;51.982;5.648;2023-02-15T02:21:25;7.1;59.3
78463;SHT31;67756;51.982;5.648;2023-02-15T02:24:57;7.1;59.6
78463;SHT31;67756;51.982;5.648;2023-02-15T02:27:38;7.1;59.6
78463;SHT31;67756;51.982;5.648;2023-02-15T02:30:34;7.1;59.5
78463;SHT31;67756;51.982;5.648;2023-02-15T02:33:20;7.0;59.9
78463;SHT31;67756;51.982;5.648;2023-02-15T02:36:00;7.0;59.8
78463;SHT31;67756;51.982;5.648;2023-02-15T02:38:41;7.0;59.8
78463;SHT31;67756;51.982;5.648;2023-02-15T02:41:20;7.0;59.9
78463;SHT31;67756;51.982;5.648;2023-02-15T02:43:58;7.0;60.3
78463;SHT31;67756;51.982;5.648;2023-02-15T02:46:34;7.0;60.2
78463;SHT31;67756;51.982;5.648;2023-02-15T02:49:05;7.0;60.4
78463;SHT31;67756;51.982;5.648;2023-02-15T02:51:36;7.0;60.5
78463;SHT31;67756;51.982;5.648;2023-02-15T02:54:06;6.9;60.4
78463;SHT31;67756;51.982;5.648;2023-02-15T02:56:43;6.9;60.4
78463;SHT31;67756;51.982;5.648;2023-02-15T02:59:23;6.9;60.5
78463;SHT31;67756;51.982;5.648;2023-02-15T03:01:58;6.9;61.0
78463;SHT31;67756;51.982;5.648;2023-02-15T03:04:34;6.9;61.5
78463;SHT31;67756;51.982;5.648;2023-02-15T03:07:09;6.9;61.1
78463;SHT31;67756;51.982;5.648;2023-02-15T03:09:43;6.9;61.7
78463;SHT31;67756;51.982;5.648;2023-02-15T03:12:17;6.8;62.1
78463;SHT31;67756;51.982;5.648;2023-02-15T03:14:52;6.8;64.0
78463;SHT31;67756;51.982;5.648;2023-02-15T03:17:26;6.8;64.3
78463;SHT31;67756;51.982;5.648;2023-02-15T03:20:00;6.8;65.5
78463;SHT31;67756;51.982;5.648;2023-02-15T03:22:35;6.8;65.8
78463;SHT31;67756;51.982;5.648;2023-02-15T03:25:10;6.9;65.7
78463;SHT31;67756;51.982;5.648;2023-02-15T03:27:44;6.9;65.3
78463;SHT31;67756;51.982;5.648;2023-02-15T03:30:18;6.9;64.4
78463;SHT31;67756;51.982;5.648;2023-02-15T03:32:51;6.9;64.4
78463;SHT31;67756;51.982;5.648;2023-02-15T03:35:24;6.9;64.2
78463;SHT31;67756;51.982;5.648;2023-02-15T03:37:59;6.9;63.3
78463;SHT31;67756;51.982;5.648;2023-02-15T03:40:33;6.9;63.1
78463;SHT31;67756;51.982;5.648;2023-02-15T03:43:28;6.9;63.2
78463;SHT31;67756;51.982;5.648;2023-02-15T03:46:05;6.9;63.3
78463;SHT31;67756;51.982;5.648;2023-02-15T03:48:39;6.9;63.3
78463;SHT31;67756;51.982;5.648;2023-02-15T03:51:15;6.9;63.3
78463;SHT31;67756;51.982;5.648;2023-02-15T03:54:08;6.9;62.9
78463;SHT31;67756;51.982;5.648;2023-02-15T03:56:41;6.9;63.9
78463;SHT31;67756;51.982;5.648;2023-02-15T03:59:15;6.9;63.3
78463;SHT31;67756;51.982;5.648;2023-02-15T04:02:10;6.9;63.1
78463;SHT31;67756;51.982;5.648;2023-02-15T04:04:46;6.9;63.8
78463;SHT31;67756;51.982;5.648;2023-02-15T04:07:15;6.9;64.8
78463;SHT31;67756;51.982;5.648;2023-02-15T04:09:45;6.9;65.9
78463;SHT31;67756;51.982;5.648;2023-02-15T04:12:30;6.8;66.2
78463;SHT31;67756;51.982;5.648;2023-02-15T04:15:00;6.8;65.3
78463;SHT31;67756;51.982;5.648;2023-02-15T04:17:45;6.8;64.8
78463;SHT31;67756;51.982;5.648;2023-02-15T04:20:15;6.8;65.7
78463;SHT31;67756;51.982;5.648;2023-02-15T04:23:05;6.8;66.2
78463;SHT31;67756;51.982;5.648;2023-02-15T04:25:51;6.8;66.6
78463;SHT31;67756;51.982;5.648;2023-02-15T04:28:20;6.8;66.7
78463;SHT31;67756;51.982;5.648;2023-02-15T04:30:52;6.8;66.7
78463;SHT31;67756;51.982;5.648;2023-02-15T04:33:21;6.8;66.7
78463;SHT31;67756;51.982;5.648;2023-02-15T04:35:50;6.8;66.6
78463;SHT31;67756;51.982;5.648;2023-02-15T04:38:20;6.8;66.7
78463;SHT31;67756;51.982;5.648;2023-02-15T04:40:52;6.8;66.4
78463;SHT31;67756;51.982;5.648;2023-02-15T04:43:21;6.8;66.0
78463;SHT31;67756;51.982;5.648;2023-02-15T04:45:51;6.8;66.1
78463;SHT31;67756;51.982;5.648;2023-02-15T04:48:20;6.8;66.2
78463;SHT31;67756;51.982;5.648;2023-02-15T04:50:52;6.8;66.4
78463;SHT31;67756;51.982;5.648;2023-02-15T04:53:21;6.8;66.4
78463;SHT31;67756;51.982;5.648;2023-02-15T04:55:53;6.7;66.5
78463;SHT31;67756;51.982;5.648;2023-02-15T04:58:22;6.7;66.4
78463;SHT31;67756;51.982;5.648;2023-02-15T05:00:55;6.7;66.7
78463;SHT31;67756;51.982;5.648;2023-02-15T05:03:25;6.7;66.3
78463;SHT31;67756;51.982;5.648;2023-02-15T05:05:56;6.6;66.7
78463;SHT31;67756;51.982;5.648;2023-02-15T05:08:26;6.6;66.9
78463;SHT31;67756;51.982;5.648;2023-02-15T05:10:56;6.6;67.2
78463;SHT31;67756;51.982;5.648;2023-02-15T05:13:25;6.5;67.1
78463;SHT31;67756;51.982;5.648;2023-02-15T05:15:55;6.5;67.0
78463;SHT31;67756;51.982;5.648;2023-02-15T05:18:24;6.5;66.9
78463;SHT31;67756;51.982;5.648;2023-02-15T05:20:54;6.5;66.7
78463;SHT31;67756;51.982;5.648;2023-02-15T05:23:24;6.5;66.9
78463;SHT31;67756;51.982;5.648;2023-02-15T05:25:55;6.5;66.9
78463;SHT31;67756;51.982;5.648;2023-02-15T05:28:41;6.5;66.7
78463;SHT31;67756;51.982;5.648;2023-02-15T05:31:13;6.5;66.8
78463;SHT31;67756;51.982;5.648;2023-02-15T05:33:44;6.4;67.0
78463;SHT31;67756;51.982;5.648;2023-02-15T05:36:14;6.4;66.7
78463;SHT31;67756;51.982;5.648;2023-02-15T05:38:43;6.4;66.8
78463;SHT31;67756;51.982;5.648;2023-02-15T05:41:13;6.4;66.9
78463;SHT31;67756;51.982;5.648;2023-02-15T05:43:43;6.3;66.9
78463;SHT31;67756;51.982;5.648;2023-02-15T05:46:13;6.3;66.9
78463;SHT31;67756;51.982;5.648;2023-02-15T05:48:42;6.3;66.9
78463;SHT31;67756;51.982;5.648;2023-02-15T05:51:13;6.3;66.9
78463;SHT31;67756;51.982;5.648;2023-02-15T05:53:43;6.2;67.1
78463;SHT31;67756;51.982;5.648;2023-02-15T05:56:13;6.2;67.0
78463;SHT31;67756;51.982;5.648;2023-02-15T05:58:43;6.2;67.2
78463;SHT31;67756;51.982;5.648;2023-02-15T06:01:14;6.2;67.0
78463;SHT31;67756;51.982;5.648;2023-02-15T06:03:45;6.2;67.0
78463;SHT31;67756;51.982;5.648;2023-02-15T06:06:17;6.2;66.8
78463;SHT31;67756;51.982;5.648;2023-02-15T06:08:46;6.2;66.8
78463;SHT31;67756;51.982;5.648;2023-02-15T06:11:16;6.2;66.5
78463;SHT31;67756;51.982;5.648;2023-02-15T06:13:45;6.2;66.9
78463;SHT31;67756;51.982;5.648;2023-02-15T06:16:15;6.2;66.9
78463;SHT31;67756;51.982;5.648;2023-02-15T06:18:45;6.1;66.5
78463;SHT31;67756;51.982;5.648;2023-02-15T06:21:14;6.1;66.7
78463;SHT31;67756;51.982;5.648;2023-02-15T06:23:44;6.1;66.8
78463;SHT31;67756;51.982;5.648;2023-02-15T06:26:13;6.0;66.9
78463;SHT31;67756;51.982;5.648;2023-02-15T06:28:43;6.0;67.0
78463;SHT31;67756;51.982;5.648;2023-02-15T06:31:13;6.0;67.1
78463;SHT31;67756;51.982;5.648;2023-02-15T06:33:42;6.0;67.1
78463;SHT31;67756;51.982;5.648;2023-02-15T06:36:12;6.0;67.1
78463;SHT31;67756;51.982;5.648;2023-02-15T06:38:41;6.0;67.0
78463;SHT31;67756;51.982;5.648;2023-02-15T06:41:11;6.0;66.7
78463;SHT31;67756;51.982;5.648;2023-02-15T06:43:40;6.0;66.8
78463;SHT31;67756;51.982;5.648;2023-02-15T06:46:10;6.0;66.7
78463;SHT31;67756;51.982;5.648;2023-02-15T06:48:39;6.0;66.6
78463;SHT31;67756;51.982;5.648;2023-02-15T06:51:09;5.9;66.7
78463;SHT31;67756;51.982;5.648;2023-02-15T06:53:38;5.9;66.9
78463;SHT31;67756;51.982;5.648;2023-02-15T06:56:10;5.9;66.7
78463;SHT31;67756;51.982;5.648;2023-02-15T06:58:41;5.9;66.9
78463;SHT31;67756;51.982;5.648;2023-02-15T07:01:13;5.8;66.8
78463;SHT31;67756;51.982;5.648;2023-02-15T07:03:42;5.8;67.2
78463;SHT31;67756;51.982;5.648;2023-02-15T07:06:12;5.8;67.1
78463;SHT31;67756;51.982;5.648;2023-02-15T07:08:41;5.8;67.1
78463;SHT31;67756;51.982;5.648;2023-02-15T07:11:13;5.7;67.3
78463;SHT31;67756;51.982;5.648;2023-02-15T07:13:58;5.7;67.4
78463;SHT31;67756;51.982;5.648;2023-02-15T07:16:28;5.7;67.4
78463;SHT31;67756;51.982;5.648;2023-02-15T07:18:57;5.7;67.2
78463;SHT31;67756;51.982;5.648;2023-02-15T07:21:26;5.7;67.4
78463;SHT31;67756;51.982;5.648;2023-02-15T07:23:57;5.7;67.2
78463;SHT31;67756;51.982;5.648;2023-02-15T07:26:27;5.7;67.6
78463;SHT31;67756;51.982;5.648;2023-02-15T07:28:56;5.7;67.5
78463;SHT31;67756;51.982;5.648;2023-02-15T07:31:26;5.7;67.4
78463;SHT31;67756;51.982;5.648;2023-02-15T07:33:55;5.7;67.2
78463;SHT31;67756;51.982;5.648;2023-02-15T07:36:27;5.7;67.3
78463;SHT31;67756;51.982;5.648;2023-02-15T07:38:57;5.7;67.5
78463;SHT31;67756;51.982;5.648;2023-02-15T07:41:26;5.7;67.4
78463;SHT31;67756;51.982;5.648;2023-02-15T07:43:55;5.7;67.4
78463;SHT31;67756;51.982;5.648;2023-02-15T07:46:25;5.7;67.3
78463;SHT31;67756;51.982;5.648;2023-02-15T07:48:55;5.7;67.6
78463;SHT31;67756;51.982;5.648;2023-02-15T07:51:24;5.7;67.7
78463;SHT31;67756;51.982;5.648;2023-02-15T07:53:54;5.7;67.5
78463;SHT31;67756;51.982;5.648;2023-02-15T07:56:24;5.7;67.7
78463;SHT31;67756;51.982;5.648;2023-02-15T07:58:53;5.7;68.0
78463;SHT31;67756;51.982;5.648;2023-02-15T08:01:27;5.7;67.9
78463;SHT31;67756;51.982;5.648;2023-02-15T08:03:59;5.7;68.0
78463;SHT31;67756;51.982;5.648;2023-02-15T08:06:31;5.7;67.9
78463;SHT31;67756;51.982;5.648;2023-02-15T08:09:03;5.7;68.2
78463;SHT31;67756;51.982;5.648;2023-02-15T08:11:35;5.8;67.8
78463;SHT31;67756;51.982;5.648;2023-02-15T08:14:10;5.8;67.7
78463;SHT31;67756;51.982;5.648;2023-02-15T08:16:42;5.9;67.9
78463;SHT31;67756;51.982;5.648;2023-02-15T08:19:14;5.9;67.7
78463;SHT31;67756;51.982;5.648;2023-02-15T08:21:46;5.9;67.2
78463;SHT31;67756;51.982;5.648;2023-02-15T08:24:18;5.9;67.4
78463;SHT31;67756;51.982;5.648;2023-02-15T08:26:49;6.0;67.4
78463;SHT31;67756;51.982;5.648;2023-02-15T08:29:21;6.0;67.1
78463;SHT31;67756;51.982;5.648;2023-02-15T08:31:54;6.0;67.0
78463;SHT31;67756;51.982;5.648;2023-02-15T08:34:26;6.1;67.1
78463;SHT31;67756;51.982;5.648;2023-02-15T08:36:55;6.1;66.8
78463;SHT31;67756;51.982;5.648;2023-02-15T08:39:25;6.1;66.9
78463;SHT31;67756;51.982;5.648;2023-02-15T08:41:55;6.2;66.7
78463;SHT31;67756;51.982;5.648;2023-02-15T08:44:24;6.2;67.3
78463;SHT31;67756;51.982;5.648;2023-02-15T08:46:54;6.2;67.5
78463;SHT31;67756;51.982;5.648;2023-02-15T08:49:27;6.2;67.8
78463;SHT31;67756;51.982;5.648;2023-02-15T08:51:57;6.3;67.3
78463;SHT31;67756;51.982;5.648;2023-02-15T08:54:27;6.3;66.4
78463;SHT31;67756;51.982;5.648;2023-02-15T08:56:56;6.4;66.4
78463;SHT31;67756;51.982;5.648;2023-02-15T08:59:27;6.4;66.3
78463;SHT31;67756;51.982;5.648;2023-02-15T09:01:56;6.5;66.9
78463;SHT31;67756;51.982;5.648;2023-02-15T09:04:26;6.5;66.7
78463;SHT31;67756;51.982;5.648;2023-02-15T09:06:55;6.6;66.1
78463;SHT31;67756;51.982;5.648;2023-02-15T09:09:27;6.6;66.1
78463;SHT31;67756;51.982;5.648;2023-02-15T09:11:58;6.6;66.8
78463;SHT31;67756;51.982;5.648;2023-02-15T09:14:27;6.7;66.9
78463;SHT31;67756;51.982;5.648;2023-02-15T09:16:57;6.7;67.0
78463;SHT31;67756;51.982;5.648;2023-02-15T09:19:27;6.8;67.0
78463;SHT31;67756;51.982;5.648;2023-02-15T09:21:56;6.9;66.1
78463;SHT31;67756;51.982;5.648;2023-02-15T09:24:26;6.9;66.0
78463;SHT31;67756;51.982;5.648;2023-02-15T09:26:55;7.0;65.5
78463;SHT31;67756;51.982;5.648;2023-02-15T09:29:25;7.0;65.4
78463;SHT31;67756;51.982;5.648;2023-02-15T09:31:54;7.1;65.9
78463;SHT31;67756;51.982;5.648;2023-02-15T09:34:24;7.1;65.9
78463;SHT31;67756;51.982;5.648;2023-02-15T09:36:55;7.1;65.9
78463;SHT31;67756;51.982;5.648;2023-02-15T09:39:25;7.2;65.8
78463;SHT31;67756;51.982;5.648;2023-02-15T09:42:09;7.2;65.5
78463;SHT31;67756;51.982;5.648;2023-02-15T09:44:56;7.3;65.8
78463;SHT31;67756;51.982;5.648;2023-02-15T09:47:44;7.3;65.8
78463;SHT31;67756;51.982;5.648;2023-02-15T09:50:23;7.4;65.6
78463;SHT31;67756;51.982;5.648;2023-02-15T09:53:09;7.5;65.7
78463;SHT31;67756;51.982;5.648;2023-02-15T09:55:51;7.6;65.9
78463;SHT31;67756;51.982;5.648;2023-02-15T09:58:33;7.6;64.8
78463;SHT31;67756;51.982;5.648;2023-02-15T10:01:13;7.7;64.6
78463;SHT31;67756;51.982;5.648;2023-02-15T10:04:00;7.8;65.1
78463;SHT31;67756;51.982;5.648;2023-02-15T10:06:36;7.8;64.3
78463;SHT31;67756;51.982;5.648;2023-02-15T10:09:37;7.9;64.7
78463;SHT31;67756;51.982;5.648;2023-02-15T10:12:17;8.0;64.2
78463;SHT31;67756;51.982;5.648;2023-02-15T10:15:27;8.1;63.7
78463;SHT31;67756;51.982;5.648;2023-02-15T10:18:06;8.3;62.9
78463;SHT31;67756;51.982;5.648;2023-02-15T10:20:49;8.4;62.1
78463;SHT31;67756;51.982;5.648;2023-02-15T10:23:37;8.5;62.6
78463;SHT31;67756;51.982;5.648;2023-02-15T10:26:19;8.6;61.6
78463;SHT31;67756;51.982;5.648;2023-02-15T10:28:52;8.8;61.3
78463;SHT31;67756;51.982;5.648;2023-02-15T10:31:27;8.9;60.8
78463;SHT31;67756;51.982;5.648;2023-02-15T10:34:11;9.0;60.5
78463;SHT31;67756;51.982;5.648;2023-02-15T10:37:05;9.1;60.0
78463;SHT31;67756;51.982;5.648;2023-02-15T10:39:49;9.2;60.0
78463;SHT31;67756;51.982;5.648;2023-02-15T10:42:29;9.2;60.6
78463;SHT31;67756;51.982;5.648;2023-02-15T10:45:09;9.3;60.3
78463;SHT31;67756;51.982;5.648;2023-02-15T10:47:55;9.4;59.9
78463;SHT31;67756;51.982;5.648;2023-02-15T10:50:39;9.5;58.5
78463;SHT31;67756;51.982;5.648;2023-02-15T10:53:39;9.6;58.5
78463;SHT31;67756;51.982;5.648;2023-02-15T10:56:17;9.8;58.2
78463;SHT31;67756;51.982;5.648;2023-02-15T10:59:04;9.9;58.4
78463;SHT31;67756;51.982;5.648;2023-02-15T11:01:41;10.0;57.6
78463;SHT31;67756;51.982;5.648;2023-02-15T11:04:32;10.1;58.3
78463;SHT31;67756;51.982;5.648;2023-02-15T11:07:10;10.2;57.8
78463;SHT31;67756;51.982;5.648;2023-02-15T11:09:46;10.3;57.4
78463;SHT31;67756;51.982;5.648;2023-02-15T11:12:22;10.4;57.8
78463;SHT31;67756;51.982;5.648;2023-02-15T11:14:58;10.6;57.2
78463;SHT31;67756;51.982;5.648;2023-02-15T11:17:36;10.8;56.1
78463;SHT31;67756;51.982;5.648;2023-02-15T11:20:18;11.1;56.0
78463;SHT31;67756;51.982;5.648;2023-02-15T11:22:51;11.4;55.1
78463;SHT31;67756;51.982;5.648;2023-02-15T11:25:25;11.6;54.0
78463;SHT31;67756;51.982;5.648;2023-02-15T11:27:55;11.8;53.5
78463;SHT31;67756;51.982;5.648;2023-02-15T11:30:39;11.9;53.8
78463;SHT31;67756;51.982;5.648;2023-02-15T11:33:05;12.1;53.5
78463;SHT31;67756;51.982;5.648;2023-02-15T11:35:40;12.2;52.9
78463;SHT31;67756;51.982;5.648;2023-02-15T11:38:18;12.3;52.2
78463;SHT31;67756;51.982;5.648;2023-02-15T11:40:54;12.4;52.6
78463;SHT31;67756;51.982;5.648;2023-02-15T11:43:30;12.4;52.7
78463;SHT31;67756;51.982;5.648;2023-02-15T11:46:00;12.4;52.6
78463;SHT31;67756;51.982;5.648;2023-02-15T11:48:32;12.5;52.2
78463;SHT31;67756;51.982;5.648;2023-02-15T11:51:03;12.5;52.3
78463;SHT31;67756;51.982;5.648;2023-02-15T11:53:36;12.7;51.8
78463;SHT31;67756;51.982;5.648;2023-02-15T11:56:15;12.8;52.2
78463;SHT31;67756;51.982;5.648;2023-02-15T11:58:51;13.0;51.7
78463;SHT31;67756;51.982;5.648;2023-02-15T12:01:27;13.2;51.0
78463;SHT31;67756;51.982;5.648;2023-02-15T12:04:02;13.4;51.0
78463;SHT31;67756;51.982;5.648;2023-02-15T12:06:41;13.5;50.5
78463;SHT31;67756;51.982;5.648;2023-02-15T12:09:23;13.8;49.7
78463;SHT31;67756;51.982;5.648;2023-02-15T12:11:52;14.0;49.3
78463;SHT31;67756;51.982;5.648;2023-02-15T12:14:21;14.2;48.8
78463;SHT31;67756;51.982;5.648;2023-02-15T12:16:54;14.3;48.0
78463;SHT31;67756;51.982;5.648;2023-02-15T12:19:32;14.4;47.8
78463;SHT31;67756;51.982;5.648;2023-02-15T12:22:19;14.5;47.6
78463;SHT31;67756;51.982;5.648;2023-02-15T12:24:53;14.5;47.4
78463;SHT31;67756;51.982;5.648;2023-02-15T12:27:25;14.6;47.4
78463;SHT31;67756;51.982;5.648;2023-02-15T12:30:00;14.7;47.6
78463;SHT31;67756;51.982;5.648;2023-02-15T12:32:34;14.8;47.5
78463;SHT31;67756;51.982;5.648;2023-02-15T12:35:13;14.9;48.4
78463;SHT31;67756;51.982;5.648;2023-02-15T12:37:54;15.1;47.0
78463;SHT31;67756;51.982;5.648;2023-02-15T12:40:26;15.4;46.3
78463;SHT31;67756;51.982;5.648;2023-02-15T12:42:59;15.5;45.8
78463;SHT31;67756;51.982;5.648;2023-02-15T12:45:36;15.7;44.7
78463;SHT31;67756;51.982;5.648;2023-02-15T12:48:14;15.9;43.9
78463;SHT31;67756;51.982;5.648;2023-02-15T12:50:46;16.0;44.1
78463;SHT31;67756;51.982;5.648;2023-02-15T12:53:19;16.1;43.9
78463;SHT31;67756;51.982;5.648;2023-02-15T12:55:56;16.2;42.8
78463;SHT31;67756;51.982;5.648;2023-02-15T12:58:27;16.2;43.7
78463;SHT31;67756;51.982;5.648;2023-02-15T13:01:12;16.2;43.5
78463;SHT31;67756;51.982;5.648;2023-02-15T13:03:56;16.2;42.8
78463;SHT31;67756;51.982;5.648;2023-02-15T13:06:29;16.3;42.9
78463;SHT31;67756;51.982;5.648;2023-02-15T13:09:11;16.2;42.7
78463;SHT31;67756;51.982;5.648;2023-02-15T13:11:43;16.2;43.2
78463;SHT31;67756;51.982;5.648;2023-02-15T13:14:19;16.2;42.7
78463;SHT31;67756;51.982;5.648;2023-02-15T13:16:52;16.1;43.0
78463;SHT31;67756;51.982;5.648;2023-02-15T13:19:31;16.0;43.1
78463;SHT31;67756;51.982;5.648;2023-02-15T13:22:06;15.9;43.0
78463;SHT31;67756;51.982;5.648;2023-02-15T13:24:41;15.8;43.5
78463;SHT31;67756;51.982;5.648;2023-02-15T13:27:16;15.6;43.3
78463;SHT31;67756;51.982;5.648;2023-02-15T13:29:50;15.5;44.0
78463;SHT31;67756;51.982;5.648;2023-02-15T13:32:28;15.4;44.4
78463;SHT31;67756;51.982;5.648;2023-02-15T13:35:01;15.3;45.0
78463;SHT31;67756;51.982;5.648;2023-02-15T13:37:56;15.2;45.3
78463;SHT31;67756;51.982;5.648;2023-02-15T13:40:35;15.2;45.6
78463;SHT31;67756;51.982;5.648;2023-02-15T13:43:17;15.3;45.5
78463;SHT31;67756;51.982;5.648;2023-02-15T13:46:04;15.4;45.5
78463;SHT31;67756;51.982;5.648;2023-02-15T13:48:47;15.4;45.4
78463;SHT31;67756;51.982;5.648;2023-02-15T13:51:30;15.5;45.0
78463;SHT31;67756;51.982;5.648;2023-02-15T13:54:23;15.6;45.3
78463;SHT31;67756;51.982;5.648;2023-02-15T13:57:08;15.7;44.4
78463;SHT31;67756;51.982;5.648;2023-02-15T13:59:48;15.8;45.0
78463;SHT31;67756;51.982;5.648;2023-02-15T14:02:41;15.8;44.7
78463;SHT31;67756;51.982;5.648;2023-02-15T14:05:25;15.8;45.2
78463;SHT31;67756;51.982;5.648;2023-02-15T14:08:04;15.7;45.7
78463;SHT31;67756;51.982;5.648;2023-02-15T14:10:46;15.7;45.3
78463;SHT31;67756;51.982;5.648;2023-02-15T14:14:57;15.6;46.0
78463;SHT31;67756;51.982;5.648;2023-02-15T14:17:42;15.5;45.6
78463;SHT31;67756;51.982;5.648;2023-02-15T14:20:22;15.4;45.8
78463;SHT31;67756;51.982;5.648;2023-02-15T14:23:03;15.3;46.2
78463;SHT31;67756;51.982;5.648;2023-02-15T14:25:45;15.2;47.1
78463;SHT31;67756;51.982;5.648;2023-02-15T14:28:25;15.2;46.8
78463;SHT31;67756;51.982;5.648;2023-02-15T14:30:57;15.2;47.1
78463;SHT31;67756;51.982;5.648;2023-02-15T14:33:33;15.1;46.9
78463;SHT31;67756;51.982;5.648;2023-02-15T14:36:06;15.1;47.2
78463;SHT31;67756;51.982;5.648;2023-02-15T14:38:54;15.1;47.2
78463;SHT31;67756;51.982;5.648;2023-02-15T14:41:31;15.1;47.6
78463;SHT31;67756;51.982;5.648;2023-02-15T14:44:15;15.1;46.8
78463;SHT31;67756;51.982;5.648;2023-02-15T14:46:52;15.0;47.3
78463;SHT31;67756;51.982;5.648;2023-02-15T14:49:27;15.0;47.8
78463;SHT31;67756;51.982;5.648;2023-02-15T14:52:04;15.0;48.7
78463;SHT31;67756;51.982;5.648;2023-02-15T14:54:54;14.9;48.2
78463;SHT31;67756;51.982;5.648;2023-02-15T14:57:27;14.9;48.6
78463;SHT31;67756;51.982;5.648;2023-02-15T15:00:00;14.9;48.3
78463;SHT31;67756;51.982;5.648;2023-02-15T15:02:47;14.9;48.3
78463;SHT31;67756;51.982;5.648;2023-02-15T15:05:21;14.8;48.4
78463;SHT31;67756;51.982;5.648;2023-02-15T15:07:56;14.8;48.5
78463;SHT31;67756;51.982;5.648;2023-02-15T15:10:39;14.8;48.7
78463;SHT31;67756;51.982;5.648;2023-02-15T15:13:37;14.7;49.0
78463;SHT31;67756;51.982;5.648;2023-02-15T15:17:17;14.7;48.8
78463;SHT31;67756;51.982;5.648;2023-02-15T15:20:10;14.6;48.8
78463;SHT31;67756;51.982;5.648;2023-02-15T15:22:42;14.6;48.4
78463;SHT31;67756;51.982;5.648;2023-02-15T15:25:55;14.5;48.8
78463;SHT31;67756;51.982;5.648;2023-02-15T15:28:56;14.5;48.9
78463;SHT31;67756;51.982;5.648;2023-02-15T15:31:40;14.4;49.5
78463;SHT31;67756;51.982;5.648;2023-02-15T15:34:32;14.4;49.0
78463;SHT31;67756;51.982;5.648;2023-02-15T15:41:51;14.3;48.9
78463;SHT31;67756;51.982;5.648;2023-02-15T15:47:39;14.2;49.3
78463;SHT31;67756;51.982;5.648;2023-02-15T15:50:17;14.2;49.7
78463;SHT31;67756;51.982;5.648;2023-02-15T15:52:51;14.2;50.0
78463;SHT31;67756;51.982;5.648;2023-02-15T15:55:23;14.2;51.2
78463;SHT31;67756;51.982;5.648;2023-02-15T15:57:58;14.2;50.9
78463;SHT31;67756;51.982;5.648;2023-02-15T16:00:35;14.2;51.0
78463;SHT31;67756;51.982;5.648;2023-02-15T16:03:20;14.2;51.2
78463;SHT31;67756;51.982;5.648;2023-02-15T16:05:50;14.2;51.7
78463;SHT31;67756;51.982;5.648;2023-02-15T16:08:31;14.2;50.8
78463;SHT31;67756;51.982;5.648;2023-02-15T16:11:10;14.1;51.7
78463;SHT31;67756;51.982;5.648;2023-02-15T16:13:42;14.1;53.3
78463;SHT31;67756;51.982;5.648;2023-02-15T16:16:22;14.1;51.8
78463;SHT31;67756;51.982;5.648;2023-02-15T16:18:56;14.1;51.4
78463;SHT31;67756;51.982;5.648;2023-02-15T16:21:30;14.1;50.9
78463;SHT31;67756;51.982;5.648;2023-02-15T16:27:32;14.0;51.2
78463;SHT31;67756;51.982;5.648;2023-02-15T16:30:24;14.0;51.9
78463;SHT31;67756;51.982;5.648;2023-02-15T16:33:02;13.9;52.0
78463;SHT31;67756;51.982;5.648;2023-02-15T16:35:31;13.9;51.3
78463;SHT31;67756;51.982;5.648;2023-02-15T16:38:05;13.9;51.1
78463;SHT31;67756;51.982;5.648;2023-02-15T16:40:48;13.8;51.5
78463;SHT31;67756;51.982;5.648;2023-02-15T16:43:25;13.8;51.4
78463;SHT31;67756;51.982;5.648;2023-02-15T16:46:05;13.8;51.2
78463;SHT31;67756;51.982;5.648;2023-02-15T16:48:42;13.7;51.6
78463;SHT31;67756;51.982;5.648;2023-02-15T16:51:20;13.7;50.9
78463;SHT31;67756;51.982;5.648;2023-02-15T16:53:51;13.6;51.2
78463;SHT31;67756;51.982;5.648;2023-02-15T16:56:26;13.6;51.0
78463;SHT31;67756;51.982;5.648;2023-02-15T16:58:59;13.5;51.0
78463;SHT31;67756;51.982;5.648;2023-02-15T17:01:32;13.4;51.6
78463;SHT31;67756;51.982;5.648;2023-02-15T17:04:26;13.4;51.3
78463;SHT31;67756;51.982;5.648;2023-02-15T17:07:00;13.4;51.7
78463;SHT31;67756;51.982;5.648;2023-02-15T17:09:33;13.3;51.7
78463;SHT31;67756;51.982;5.648;2023-02-15T17:12:02;13.2;51.4
78463;SHT31;67756;51.982;5.648;2023-02-15T17:14:38;13.2;51.7
78463;SHT31;67756;51.982;5.648;2023-02-15T17:17:13;13.1;51.9
78463;SHT31;67756;51.982;5.648;2023-02-15T17:19:49;13.1;51.8